This is the latest recevied weather packets stored in our database for station/object N5BTB-10. If no packets are shown the sender has not sent any weather packets the latest 10 day(s).
| Time | Temp. | Humidity | Pressure | Rain* | Wind** | Luminosity | Snow |
|---|---|---|---|---|---|---|---|
| 1777590006 | 31.11° C | 23% | - | 0 mm | - | - | - |
| 1777586406 | 28.33° C | 33% | - | 0 mm | - | - | - |
| 1777582806 | 27.78° C | 36% | - | 0 mm | - | - | - |
| 1777579206 | 25.56° C | 40% | - | 0 mm | - | - | - |
| 1777575606 | 23.33° C | 44% | - | 0 mm | - | - | - |
| 1777572006 | 20.56° C | 52% | - | 0 mm | - | - | - |
| 1777568406 | 18.89° C | 60% | - | 0 mm | - | - | - |
| 1777564806 | 15.56° C | 61% | - | 0 mm | - | - | - |
| 1777561206 | 10.56° C | 79% | - | 0 mm | - | - | - |
| 1777557606 | 8.33° C | 88% | - | 0 mm | - | - | - |
| 1777554006 | 8.33° C | 91% | - | 0 mm | - | - | - |
| 1777550406 | 8.33° C | 90% | - | 0 mm | - | - | - |
| 1777546806 | 8.33° C | 88% | - | 0 mm | - | - | - |
| 1777543206 | 8.89° C | 87% | - | 0 mm | - | - | - |
| 1777539605 | 9.44° C | 85% | - | 0 mm | - | - | - |
| 1777536006 | 10° C | 82% | - | 0 mm | - | - | - |
| 1777532405 | 11.11° C | 77% | - | 0 mm | - | - | - |
| 1777528805 | 12.22° C | 72% | - | 0 mm | - | - | - |
| 1777525205 | 13.89° C | 71% | - | 0 mm | - | - | - |
| 1777521605 | 15° C | 69% | - | 0 mm | - | - | - |
| 1777518005 | 17.22° C | 52% | - | 0 mm | - | - | - |
| 1777514405 | 18.89° C | 47% | - | 0 mm | - | - | - |
| 1777510805 | 19.44° C | 51% | - | 0 mm | - | - | - |
| 1777507205 | 22.22° C | 44% | - | 0 mm | - | - | - |
| 1777503605 | 23.89° C | 42% | - | 0 mm | - | - | - |
* Rain latest hour (hover to see other rain measurements)
** Current wind speed in m/s (hover to see current wind gust speed)